createdAt,value
2019-02-27T00:00:47.480Z,1027.55
2019-02-27T00:01:49.614Z,1027.53
2019-02-27T00:02:47.459Z,1027.55
2019-02-27T00:03:47.453Z,1027.54
2019-02-27T00:04:47.438Z,1027.54
2019-02-27T00:05:47.425Z,1027.54
2019-02-27T00:06:47.852Z,1027.57
2019-02-27T00:07:47.415Z,1027.58
2019-02-27T00:08:47.392Z,1027.51
2019-02-27T00:09:47.710Z,1027.54
2019-02-27T00:10:47.369Z,1027.51
2019-02-27T00:11:47.358Z,1027.51
2019-02-27T00:12:51.708Z,1027.55
2019-02-27T00:13:48.337Z,1027.52
2019-02-27T00:14:47.326Z,1027.53
2019-02-27T00:15:47.599Z,1027.51
2019-02-27T00:16:47.303Z,1027.50
2019-02-27T00:17:51.106Z,1027.51
2019-02-27T00:18:47.281Z,1027.51
2019-02-27T00:19:47.271Z,1027.48
2019-02-27T00:20:47.259Z,1027.52
2019-02-27T00:21:47.260Z,1027.52
2019-02-27T00:22:47.876Z,1027.58
2019-02-27T00:23:47.225Z,1027.56
2019-02-27T00:24:47.214Z,1027.58
2019-02-27T00:25:47.203Z,1027.55
2019-02-27T00:26:47.192Z,1027.56
2019-02-27T00:27:49.130Z,1027.52
2019-02-27T00:28:47.171Z,1027.50
2019-02-27T00:29:47.159Z,1027.49
2019-02-27T00:30:47.148Z,1027.49
2019-02-27T00:31:47.138Z,1027.51
2019-02-27T00:32:51.058Z,1027.45
2019-02-27T00:33:47.122Z,1027.38
2019-02-27T00:34:47.104Z,1027.43
2019-02-27T00:35:47.093Z,1027.35
2019-02-27T00:36:47.084Z,1027.41
2019-02-27T00:37:47.074Z,1027.37
2019-02-27T00:38:47.060Z,1027.38
2019-02-27T00:39:47.327Z,1027.35
2019-02-27T00:40:47.038Z,1027.35
2019-02-27T00:41:47.027Z,1027.41
2019-02-27T00:42:47.016Z,1027.40
2019-02-27T00:43:47.008Z,1027.40
2019-02-27T00:44:46.994Z,1027.44
2019-02-27T00:45:47.257Z,1027.41
2019-02-27T00:46:47.079Z,1027.37
2019-02-27T00:47:46.960Z,1027.39
2019-02-27T00:48:46.950Z,1027.36
2019-02-27T00:49:46.939Z,1027.36
2019-02-27T00:50:46.939Z,1027.30
2019-02-27T00:51:47.256Z,1027.28
2019-02-27T00:52:50.898Z,1027.28
2019-02-27T00:53:46.897Z,1027.33
2019-02-27T00:54:46.883Z,1027.34
2019-02-27T00:55:46.871Z,1027.36
2019-02-27T00:56:46.861Z,1027.36
2019-02-27T00:57:47.129Z,1027.37
2019-02-27T00:58:46.838Z,1027.37
2019-02-27T00:59:46.827Z,1027.35
2019-02-27T01:00:46.817Z,1027.36
2019-02-27T01:01:47.434Z,1027.30
2019-02-27T01:02:46.795Z,1027.34
2019-02-27T01:03:48.513Z,1027.30
2019-02-27T01:04:46.773Z,1027.32
2019-02-27T01:05:46.761Z,1027.28
2019-02-27T01:06:47.537Z,1027.29
2019-02-27T01:07:46.739Z,1027.25
2019-02-27T01:08:46.728Z,1027.23
2019-02-27T01:09:46.728Z,1027.25
2019-02-27T01:10:46.707Z,1027.24
2019-02-27T01:11:51.498Z,1027.23
2019-02-27T01:12:47.682Z,1027.20
2019-02-27T01:13:46.677Z,1027.19
2019-02-27T01:14:46.662Z,1027.21
2019-02-27T01:15:46.924Z,1027.15
2019-02-27T01:16:47.662Z,1027.18
2019-02-27T01:17:46.628Z,1027.17
2019-02-27T01:18:46.621Z,1027.19
2019-02-27T01:19:46.608Z,1027.16
2019-02-27T01:20:46.699Z,1027.11
2019-02-27T01:21:46.920Z,1027.09
2019-02-27T01:22:46.573Z,1027.11
2019-02-27T01:23:46.561Z,1027.07
2019-02-27T01:24:49.888Z,1027.08
2019-02-27T01:25:46.540Z,1027.05
2019-02-27T01:26:46.529Z,1027.11
2019-02-27T01:27:46.803Z,1027.12
2019-02-27T01:28:46.507Z,1027.07
2019-02-27T01:29:50.872Z,1027.05
2019-02-27T01:30:47.485Z,1027.08
2019-02-27T01:31:46.474Z,1027.09
2019-02-27T01:32:46.462Z,1027.07
2019-02-27T01:33:46.460Z,1027.05
2019-02-27T01:34:46.441Z,1027.03
2019-02-27T01:35:48.965Z,1027.01
2019-02-27T01:36:46.418Z,1026.96
2019-02-27T01:37:46.408Z,1027.00
2019-02-27T01:38:46.396Z,1026.99
2019-02-27T01:39:46.391Z,1026.99
2019-02-27T01:40:48.954Z,1027.01
2019-02-27T01:41:47.362Z,1026.96
2019-02-27T01:42:46.355Z,1026.98
2019-02-27T01:43:46.345Z,1026.95
2019-02-27T01:44:46.559Z,1026.99
2019-02-27T01:45:46.327Z,1026.98
2019-02-27T01:46:46.308Z,1026.93
2019-02-27T01:47:46.298Z,1026.94
2019-02-27T01:48:46.289Z,1026.93
2019-02-27T01:49:48.934Z,1026.92
2019-02-27T01:50:46.263Z,1026.90
2019-02-27T01:51:46.261Z,1026.89
2019-02-27T01:52:46.243Z,1026.86
2019-02-27T01:53:46.236Z,1026.82
2019-02-27T01:54:48.947Z,1026.79
2019-02-27T01:55:46.209Z,1026.71
2019-02-27T01:56:46.197Z,1026.74
2019-02-27T01:57:46.208Z,1026.72
2019-02-27T01:58:46.175Z,1026.75
2019-02-27T01:59:50.263Z,1026.69
2019-02-27T02:00:46.153Z,1026.67
2019-02-27T02:01:46.141Z,1026.70
2019-02-27T02:02:46.131Z,1026.67
2019-02-27T02:03:47.467Z,1026.70
2019-02-27T02:04:46.109Z,1026.64
2019-02-27T02:05:46.098Z,1026.61
2019-02-27T02:06:46.087Z,1026.66
2019-02-27T02:07:46.076Z,1026.65
2019-02-27T02:08:48.200Z,1026.62
2019-02-27T02:09:46.378Z,1026.61
2019-02-27T02:10:46.044Z,1026.62
2019-02-27T02:11:46.031Z,1026.60
2019-02-27T02:12:46.021Z,1026.59
2019-02-27T02:13:48.294Z,1026.60
2019-02-27T02:14:45.999Z,1026.54
2019-02-27T02:15:45.993Z,1026.52
2019-02-27T02:16:45.976Z,1026.46
2019-02-27T02:17:45.979Z,1026.47
2019-02-27T02:18:48.252Z,1026.41
2019-02-27T02:19:45.944Z,1026.44
2019-02-27T02:20:45.932Z,1026.42
2019-02-27T02:21:45.927Z,1026.41
2019-02-27T02:22:45.909Z,1026.38
2019-02-27T02:23:47.798Z,1026.37
2019-02-27T02:24:45.889Z,1026.36
2019-02-27T02:25:45.881Z,1026.37
2019-02-27T02:26:45.867Z,1026.36
2019-02-27T02:27:45.876Z,1026.33
2019-02-27T02:28:48.056Z,1026.34
2019-02-27T02:29:45.832Z,1026.34
2019-02-27T02:30:45.823Z,1026.32
2019-02-27T02:31:45.811Z,1026.30
2019-02-27T02:32:51.966Z,1026.28
2019-02-27T02:33:47.126Z,1026.25
2019-02-27T02:34:45.784Z,1026.27
2019-02-27T02:35:49.587Z,1026.26
2019-02-27T02:36:45.756Z,1026.23
2019-02-27T02:37:45.744Z,1026.21
2019-02-27T02:38:45.735Z,1026.21
2019-02-27T02:39:46.014Z,1026.15
2019-02-27T02:40:45.721Z,1026.14
2019-02-27T02:41:48.034Z,1026.11
2019-02-27T02:42:45.689Z,1026.17
2019-02-27T02:43:45.684Z,1026.12
2019-02-27T02:44:45.668Z,1026.12
2019-02-27T02:45:45.664Z,1026.13
2019-02-27T02:46:46.396Z,1026.12
2019-02-27T02:47:45.634Z,1026.06
2019-02-27T02:48:45.623Z,1026.09
2019-02-27T02:49:45.610Z,1026.09
2019-02-27T02:50:45.603Z,1026.12
2019-02-27T02:51:45.600Z,1026.10
2019-02-27T02:52:45.579Z,1026.07
2019-02-27T02:53:48.445Z,1026.08
2019-02-27T02:54:45.557Z,1026.08
2019-02-27T02:55:48.830Z,1026.09
2019-02-27T02:56:45.539Z,1026.08
2019-02-27T02:57:45.530Z,1026.12
2019-02-27T02:58:48.342Z,1026.06
2019-02-27T02:59:45.501Z,1026.05
2019-02-27T03:00:45.491Z,1026.07
2019-02-27T03:01:48.951Z,1026.07
2019-02-27T03:02:45.468Z,1026.06
2019-02-27T03:03:45.479Z,1026.10
2019-02-27T03:04:48.264Z,1026.08
2019-02-27T03:05:45.436Z,1026.06
2019-02-27T03:06:45.424Z,1026.09
2019-02-27T03:07:45.669Z,1026.11
2019-02-27T03:08:45.402Z,1026.10
2019-02-27T03:09:45.410Z,1026.11
2019-02-27T03:10:45.380Z,1026.09
2019-02-27T03:11:45.412Z,1026.14
2019-02-27T03:12:45.358Z,1026.13
2019-02-27T03:13:45.347Z,1026.10
2019-02-27T03:14:45.335Z,1026.11
2019-02-27T03:15:45.603Z,1026.14
2019-02-27T03:16:45.313Z,1026.14
2019-02-27T03:17:45.301Z,1026.13
2019-02-27T03:18:45.298Z,1026.10
2019-02-27T03:19:45.279Z,1026.12
2019-02-27T03:20:45.270Z,1026.10
2019-02-27T03:21:45.265Z,1026.13
2019-02-27T03:22:45.246Z,1026.18
2019-02-27T03:23:50.610Z,1026.14
2019-02-27T03:24:46.223Z,1026.16
2019-02-27T03:25:45.218Z,1026.17
2019-02-27T03:26:45.205Z,1026.13
2019-02-27T03:27:45.199Z,1026.17
2019-02-27T03:28:45.192Z,1026.13
2019-02-27T03:29:45.171Z,1026.15
2019-02-27T03:30:45.170Z,1026.11
2019-02-27T03:31:45.152Z,1026.11
2019-02-27T03:32:45.137Z,1026.12
2019-02-27T03:33:45.132Z,1026.08
2019-02-27T03:34:50.292Z,1026.08
2019-02-27T03:35:46.102Z,1026.07
2019-02-27T03:36:45.090Z,1026.07
2019-02-27T03:37:48.518Z,1026.07
2019-02-27T03:38:45.070Z,1026.04
2019-02-27T03:39:45.065Z,1026.01
2019-02-27T03:40:48.129Z,1026.05
2019-02-27T03:41:45.037Z,1026.03
2019-02-27T03:42:45.056Z,1026.05
2019-02-27T03:43:46.073Z,1026.05
2019-02-27T03:44:45.002Z,1026.06
2019-02-27T03:45:45.013Z,1026.05
2019-02-27T03:46:44.991Z,1026.01
2019-02-27T03:47:44.971Z,1026.04
2019-02-27T03:48:44.960Z,1026.03
2019-02-27T03:49:44.958Z,1026.03
2019-02-27T03:50:49.431Z,1026.02
2019-02-27T03:51:47.515Z,1025.99
2019-02-27T03:52:44.921Z,1026.00
2019-02-27T03:53:46.609Z,1026.02
2019-02-27T03:54:44.897Z,1026.01
2019-02-27T03:55:44.906Z,1026.01
2019-02-27T03:56:44.935Z,1026.00
2019-02-27T03:57:44.864Z,1026.00
2019-02-27T03:58:44.852Z,1026.00
2019-02-27T03:59:44.837Z,1026.02
2019-02-27T04:00:44.827Z,1026.02
2019-02-27T04:01:44.821Z,1026.00
2019-02-27T04:02:44.807Z,1026.02
2019-02-27T04:03:44.799Z,1025.98
2019-02-27T04:04:44.782Z,1025.94
2019-02-27T04:05:46.303Z,1025.95
2019-02-27T04:06:44.759Z,1025.95
2019-02-27T04:07:44.750Z,1025.97
2019-02-27T04:08:45.038Z,1025.93
2019-02-27T04:09:45.060Z,1025.90
2019-02-27T04:10:44.715Z,1025.91
2019-02-27T04:11:44.706Z,1025.93
2019-02-27T04:12:44.693Z,1025.91
2019-02-27T04:13:44.698Z,1025.93
2019-02-27T04:14:44.672Z,1026.03
2019-02-27T04:15:44.667Z,1025.92
2019-02-27T04:16:44.695Z,1025.86
2019-02-27T04:17:44.637Z,1025.82
2019-02-27T04:18:44.641Z,1025.82
2019-02-27T04:19:44.619Z,1025.85
2019-02-27T04:20:49.881Z,1025.81
2019-02-27T04:21:45.616Z,1025.82
2019-02-27T04:22:44.584Z,1025.81
2019-02-27T04:23:47.825Z,1025.80
2019-02-27T04:24:44.560Z,1025.80
2019-02-27T04:25:44.550Z,1025.79
2019-02-27T04:26:44.539Z,1025.78
2019-02-27T04:27:44.815Z,1025.80
2019-02-27T04:28:44.516Z,1025.81
2019-02-27T04:29:44.505Z,1025.78
2019-02-27T04:30:44.495Z,1025.83
2019-02-27T04:31:44.482Z,1025.80
2019-02-27T04:32:48.654Z,1025.80
2019-02-27T04:33:44.469Z,1025.78
2019-02-27T04:34:44.454Z,1025.77
2019-02-27T04:35:44.439Z,1025.73
2019-02-27T04:36:46.999Z,1025.77
2019-02-27T04:37:44.416Z,1025.72
2019-02-27T04:38:44.405Z,1025.73
2019-02-27T04:39:44.400Z,1025.70
2019-02-27T04:40:44.790Z,1025.73
2019-02-27T04:41:44.372Z,1025.70
2019-02-27T04:42:44.361Z,1025.71
2019-02-27T04:43:44.351Z,1025.66
2019-02-27T04:44:44.339Z,1025.66
2019-02-27T04:45:46.709Z,1025.65
2019-02-27T04:46:44.316Z,1025.67
2019-02-27T04:47:44.306Z,1025.62
2019-02-27T04:48:44.295Z,1025.69
2019-02-27T04:49:44.284Z,1025.63
2019-02-27T04:50:44.780Z,1025.61
2019-02-27T04:51:44.268Z,1025.64
2019-02-27T04:52:44.254Z,1025.64
2019-02-27T04:53:44.243Z,1025.62
2019-02-27T04:54:44.227Z,1025.60
2019-02-27T04:55:44.221Z,1025.61
2019-02-27T04:56:44.206Z,1025.60
2019-02-27T04:57:44.215Z,1025.62
2019-02-27T04:58:44.184Z,1025.61
2019-02-27T04:59:44.174Z,1025.58
2019-02-27T05:00:44.162Z,1025.61
2019-02-27T05:01:44.151Z,1025.57
2019-02-27T05:02:44.141Z,1025.54
2019-02-27T05:03:44.403Z,1025.55
2019-02-27T05:04:44.118Z,1025.52
2019-02-27T05:05:44.107Z,1025.50
2019-02-27T05:06:46.897Z,1025.49
2019-02-27T05:07:44.086Z,1025.48
2019-02-27T05:08:44.074Z,1025.53
2019-02-27T05:09:44.071Z,1025.48
2019-02-27T05:10:44.051Z,1025.46
2019-02-27T05:11:47.546Z,1025.45
2019-02-27T05:12:47.827Z,1025.43
2019-02-27T05:13:44.018Z,1025.43
2019-02-27T05:14:44.008Z,1025.42
2019-02-27T05:15:44.289Z,1025.49
2019-02-27T05:16:47.052Z,1025.42
2019-02-27T05:17:43.975Z,1025.39
2019-02-27T05:18:43.963Z,1025.37
2019-02-27T05:19:43.956Z,1025.31
2019-02-27T05:20:45.673Z,1025.30
2019-02-27T05:21:43.951Z,1025.29
2019-02-27T05:22:43.918Z,1025.31
2019-02-27T05:23:43.908Z,1025.38
2019-02-27T05:24:43.896Z,1025.31
2019-02-27T05:25:43.885Z,1025.35
2019-02-27T05:26:43.874Z,1025.36
2019-02-27T05:27:44.183Z,1025.36
2019-02-27T05:28:43.853Z,1025.37
2019-02-27T05:29:43.842Z,1025.36
2019-02-27T05:30:45.377Z,1025.33
2019-02-27T05:31:43.819Z,1025.38
2019-02-27T05:32:43.810Z,1025.42
2019-02-27T05:33:43.803Z,1025.41
2019-02-27T05:34:43.790Z,1025.43
2019-02-27T05:35:43.775Z,1025.42
2019-02-27T05:36:43.768Z,1025.45
2019-02-27T05:37:43.756Z,1025.43
2019-02-27T05:38:44.170Z,1025.45
2019-02-27T05:39:43.739Z,1025.45
2019-02-27T05:40:43.719Z,1025.42
2019-02-27T05:41:43.709Z,1025.43
2019-02-27T05:42:43.704Z,1025.45
2019-02-27T05:43:47.719Z,1025.45
2019-02-27T05:44:43.679Z,1025.43
2019-02-27T05:45:43.993Z,1025.41
2019-02-27T05:46:43.652Z,1025.41
2019-02-27T05:47:45.845Z,1025.44
2019-02-27T05:48:43.631Z,1025.38
2019-02-27T05:49:43.620Z,1025.37
2019-02-27T05:50:44.460Z,1025.40
2019-02-27T05:51:43.888Z,1025.37
2019-02-27T05:52:48.558Z,1025.39
2019-02-27T05:53:44.577Z,1025.38
2019-02-27T05:54:43.567Z,1025.47
2019-02-27T05:55:43.553Z,1025.37
2019-02-27T05:56:43.546Z,1025.39
2019-02-27T05:57:43.877Z,1025.40
2019-02-27T05:58:43.522Z,1025.39
2019-02-27T05:59:43.509Z,1025.41
2019-02-27T06:00:43.497Z,1025.39
2019-02-27T06:01:43.489Z,1025.33
2019-02-27T06:02:44.860Z,1025.33
2019-02-27T06:03:43.786Z,1025.38
2019-02-27T06:04:43.460Z,1025.33
2019-02-27T06:05:49.429Z,1025.30
2019-02-27T06:06:45.668Z,1025.33
2019-02-27T06:07:43.426Z,1025.33
2019-02-27T06:08:43.409Z,1025.33
2019-02-27T06:09:44.548Z,1025.28
2019-02-27T06:10:43.387Z,1025.30
2019-02-27T06:11:43.384Z,1025.25
2019-02-27T06:12:43.365Z,1025.28
2019-02-27T06:13:44.985Z,1025.28
2019-02-27T06:14:43.345Z,1025.24
2019-02-27T06:15:43.656Z,1025.27
2019-02-27T06:16:43.323Z,1025.28
2019-02-27T06:17:43.813Z,1025.26
2019-02-27T06:18:44.301Z,1025.26
2019-02-27T06:19:43.289Z,1025.18
2019-02-27T06:20:43.277Z,1025.21
2019-02-27T06:21:43.290Z,1025.18
2019-02-27T06:22:43.255Z,1025.17
2019-02-27T06:23:43.246Z,1025.14
2019-02-27T06:24:45.551Z,1025.12
2019-02-27T06:25:43.222Z,1025.15
2019-02-27T06:26:43.213Z,1025.15
2019-02-27T06:27:43.208Z,1025.17
2019-02-27T06:28:43.190Z,1025.13
2019-02-27T06:29:43.180Z,1025.15
2019-02-27T06:30:43.166Z,1025.12
2019-02-27T06:31:43.155Z,1025.17
2019-02-27T06:32:43.145Z,1025.13
2019-02-27T06:33:45.720Z,1025.12
2019-02-27T06:34:43.123Z,1025.12
2019-02-27T06:35:43.111Z,1025.10
2019-02-27T06:36:43.131Z,1025.15
2019-02-27T06:37:43.090Z,1025.15
2019-02-27T06:38:43.079Z,1025.14
2019-02-27T06:39:43.077Z,1025.15
2019-02-27T06:40:43.056Z,1025.13
2019-02-27T06:41:43.046Z,1025.14
2019-02-27T06:42:43.034Z,1025.10
2019-02-27T06:43:43.028Z,1025.12
2019-02-27T06:44:43.010Z,1025.15
2019-02-27T06:45:46.385Z,1025.10
2019-02-27T06:46:44.492Z,1025.15
2019-02-27T06:47:42.977Z,1025.08
2019-02-27T06:48:44.065Z,1025.09
2019-02-27T06:49:42.955Z,1025.07
2019-02-27T06:50:42.945Z,1025.07
2019-02-27T06:51:43.216Z,1025.07
2019-02-27T06:52:43.120Z,1025.06
2019-02-27T06:53:42.913Z,1025.08
2019-02-27T06:54:42.902Z,1025.04
2019-02-27T06:55:42.893Z,1025.10
2019-02-27T06:56:42.878Z,1025.01
2019-02-27T06:57:42.886Z,1025.00
2019-02-27T06:58:42.856Z,1024.98
2019-02-27T06:59:42.844Z,1024.99
2019-02-27T07:00:42.833Z,1024.96
2019-02-27T07:01:45.065Z,1025.02
2019-02-27T07:02:42.811Z,1024.98
2019-02-27T07:03:42.807Z,1025.03
2019-02-27T07:04:42.789Z,1024.95
2019-02-27T07:05:42.778Z,1025.05
2019-02-27T07:06:42.767Z,1025.03
2019-02-27T07:07:42.757Z,1025.04
2019-02-27T07:08:42.749Z,1025.02
2019-02-27T07:09:45.950Z,1025.03
2019-02-27T07:10:42.723Z,1025.01
2019-02-27T07:11:45.424Z,1024.99
2019-02-27T07:12:42.704Z,1024.94
2019-02-27T07:13:42.690Z,1025.00
2019-02-27T07:14:42.682Z,1025.14
2019-02-27T07:15:47.895Z,1025.00
2019-02-27T07:16:43.655Z,1024.98
2019-02-27T07:17:42.647Z,1024.96
2019-02-27T07:18:42.634Z,1024.96
2019-02-27T07:19:42.623Z,1024.93
2019-02-27T07:20:42.614Z,1024.92
2019-02-27T07:21:42.960Z,1024.87
2019-02-27T07:22:45.478Z,1024.87
2019-02-27T07:23:42.579Z,1025.00
2019-02-27T07:24:42.569Z,1024.92
2019-02-27T07:25:42.890Z,1024.95
2019-02-27T07:26:42.546Z,1024.92
2019-02-27T07:27:42.813Z,1024.94
2019-02-27T07:28:43.514Z,1024.91
2019-02-27T07:29:42.953Z,1024.92
2019-02-27T07:30:43.224Z,1024.98
2019-02-27T07:31:42.499Z,1024.92
2019-02-27T07:32:42.483Z,1024.92
2019-02-27T07:33:42.477Z,1024.94
2019-02-27T07:34:42.458Z,1024.91
2019-02-27T07:35:42.446Z,1024.92
2019-02-27T07:36:42.435Z,1024.91
2019-02-27T07:37:47.035Z,1024.88
2019-02-27T07:38:43.749Z,1024.88
2019-02-27T07:39:42.402Z,1024.86
2019-02-27T07:40:43.006Z,1024.80
2019-02-27T07:41:42.381Z,1024.79
2019-02-27T07:42:42.369Z,1024.79
2019-02-27T07:43:42.358Z,1024.83
2019-02-27T07:44:42.626Z,1024.81
2019-02-27T07:45:42.762Z,1024.82
2019-02-27T07:46:42.326Z,1024.84
2019-02-27T07:47:42.316Z,1024.78
2019-02-27T07:48:42.309Z,1024.79
2019-02-27T07:49:42.293Z,1024.80
2019-02-27T07:50:42.610Z,1024.78
2019-02-27T07:51:42.271Z,1024.79
2019-02-27T07:52:42.259Z,1024.79
2019-02-27T07:53:42.247Z,1024.77
2019-02-27T07:54:42.237Z,1024.71
2019-02-27T07:55:42.227Z,1024.72
2019-02-27T07:56:42.508Z,1024.78
2019-02-27T07:57:42.203Z,1024.79
2019-02-27T07:58:42.191Z,1024.78
2019-02-27T07:59:42.180Z,1024.76
2019-02-27T08:00:42.863Z,1024.72
2019-02-27T08:01:44.068Z,1024.73
2019-02-27T08:02:42.435Z,1024.69
2019-02-27T08:03:44.773Z,1024.70
2019-02-27T08:04:42.128Z,1024.69
2019-02-27T08:05:42.117Z,1024.69
2019-02-27T08:06:42.106Z,1024.66
2019-02-27T08:07:42.093Z,1024.68
2019-02-27T08:08:42.090Z,1024.68
2019-02-27T08:09:42.072Z,1024.69
2019-02-27T08:10:42.069Z,1024.67
2019-02-27T08:11:42.048Z,1024.64
2019-02-27T08:12:42.038Z,1024.59
2019-02-27T08:13:42.027Z,1024.61
2019-02-27T08:14:42.900Z,1024.60
2019-02-27T08:15:42.004Z,1024.64
2019-02-27T08:16:41.994Z,1024.60
2019-02-27T08:17:42.018Z,1024.56
2019-02-27T08:18:41.971Z,1024.56
2019-02-27T08:19:42.841Z,1024.59
2019-02-27T08:20:41.975Z,1024.55
2019-02-27T08:21:41.939Z,1024.53
2019-02-27T08:22:41.927Z,1024.56
2019-02-27T08:23:41.915Z,1024.54
2019-02-27T08:24:41.905Z,1024.53
2019-02-27T08:25:41.894Z,1024.53
2019-02-27T08:26:42.210Z,1024.62
2019-02-27T08:27:43.796Z,1024.46
2019-02-27T08:28:41.860Z,1024.45
2019-02-27T08:29:41.853Z,1024.46
2019-02-27T08:30:41.890Z,1024.49
2019-02-27T08:31:41.828Z,1024.47
2019-02-27T08:32:42.154Z,1024.51
2019-02-27T08:33:41.807Z,1024.47
2019-02-27T08:34:41.794Z,1024.50
2019-02-27T08:35:41.784Z,1024.50
2019-02-27T08:36:41.771Z,1024.47
2019-02-27T08:37:41.760Z,1024.48
2019-02-27T08:38:41.756Z,1024.47
2019-02-27T08:39:41.739Z,1024.45
2019-02-27T08:40:41.727Z,1024.40
2019-02-27T08:41:41.718Z,1024.41
2019-02-27T08:42:41.705Z,1024.40
2019-02-27T08:43:41.988Z,1024.38
2019-02-27T08:44:43.032Z,1024.40
2019-02-27T08:45:41.672Z,1024.39
2019-02-27T08:46:41.661Z,1024.39
2019-02-27T08:47:43.432Z,1024.38
2019-02-27T08:48:41.639Z,1024.37
2019-02-27T08:49:41.630Z,1024.38
2019-02-27T08:50:41.647Z,1024.36
2019-02-27T08:51:42.153Z,1024.35
2019-02-27T08:52:41.595Z,1024.35
2019-02-27T08:53:41.583Z,1024.36
2019-02-27T08:54:41.573Z,1024.35
2019-02-27T08:55:41.565Z,1024.37
2019-02-27T08:56:44.126Z,1024.32
2019-02-27T08:57:42.540Z,1024.35
2019-02-27T08:58:41.528Z,1024.32
2019-02-27T08:59:41.517Z,1024.30
2019-02-27T09:00:41.507Z,1024.31
2019-02-27T09:01:41.497Z,1024.27
2019-02-27T09:02:41.762Z,1024.28
2019-02-27T09:03:41.476Z,1024.28
2019-02-27T09:04:42.819Z,1024.24
2019-02-27T09:05:41.452Z,1024.23
2019-02-27T09:06:41.440Z,1024.20
2019-02-27T09:07:43.041Z,1024.20
2019-02-27T09:08:44.050Z,1024.17
2019-02-27T09:09:41.407Z,1024.18
2019-02-27T09:10:41.396Z,1024.12
2019-02-27T09:11:41.385Z,1024.07
2019-02-27T09:12:41.375Z,1024.06
2019-02-27T09:13:41.364Z,1024.07
2019-02-27T09:14:41.373Z,1024.05
2019-02-27T09:15:41.770Z,1024.08
2019-02-27T09:16:41.330Z,1024.11
2019-02-27T09:17:41.318Z,1024.08
2019-02-27T09:18:41.308Z,1024.04
2019-02-27T09:19:45.308Z,1024.04
2019-02-27T09:20:42.604Z,1024.02
2019-02-27T09:21:41.275Z,1023.98
2019-02-27T09:22:41.262Z,1023.98
2019-02-27T09:23:41.252Z,1023.96
2019-02-27T09:24:41.240Z,1023.92
2019-02-27T09:25:42.329Z,1023.88
2019-02-27T09:26:42.394Z,1023.89
2019-02-27T09:27:41.207Z,1023.81
2019-02-27T09:28:44.148Z,1023.85
2019-02-27T09:29:41.185Z,1023.80
2019-02-27T09:30:41.175Z,1023.77
2019-02-27T09:31:50.525Z,1023.75
2019-02-27T09:32:43.275Z,1023.78
2019-02-27T09:33:41.141Z,1023.79
2019-02-27T09:34:41.129Z,1023.79
2019-02-27T09:35:41.119Z,1023.75
2019-02-27T09:36:43.297Z,1023.76
2019-02-27T09:37:41.097Z,1023.74
2019-02-27T09:38:41.109Z,1023.71
2019-02-27T09:39:41.075Z,1023.67
2019-02-27T09:40:41.063Z,1023.69
2019-02-27T09:41:46.145Z,1023.67
2019-02-27T09:42:42.045Z,1023.78
2019-02-27T09:43:41.034Z,1023.62
2019-02-27T09:44:41.307Z,1023.67
2019-02-27T09:45:43.798Z,1023.64
2019-02-27T09:46:41.998Z,1023.62
2019-02-27T09:47:40.987Z,1023.56
2019-02-27T09:48:40.976Z,1023.58
2019-02-27T09:49:41.577Z,1023.56
2019-02-27T09:50:41.410Z,1023.50
2019-02-27T09:51:40.943Z,1023.51
2019-02-27T09:52:40.932Z,1023.53
2019-02-27T09:53:40.921Z,1023.53
2019-02-27T09:54:40.910Z,1023.56
2019-02-27T09:55:40.898Z,1023.44
2019-02-27T09:56:41.165Z,1023.43
2019-02-27T09:57:40.876Z,1023.47
2019-02-27T09:58:45.102Z,1023.40
2019-02-27T09:59:40.855Z,1023.42
2019-02-27T10:00:40.843Z,1023.43
2019-02-27T10:01:40.835Z,1023.38
2019-02-27T10:02:43.178Z,1023.36
2019-02-27T10:03:41.808Z,1023.32
2019-02-27T10:04:40.799Z,1023.35
2019-02-27T10:05:41.009Z,1023.32
2019-02-27T10:06:42.846Z,1023.31
2019-02-27T10:07:40.766Z,1023.28
2019-02-27T10:08:41.041Z,1023.30
2019-02-27T10:09:40.744Z,1023.24
2019-02-27T10:10:44.909Z,1023.30
2019-02-27T10:11:41.720Z,1023.29
2019-02-27T10:12:42.288Z,1023.31
2019-02-27T10:13:40.699Z,1023.25
2019-02-27T10:14:40.974Z,1023.30
2019-02-27T10:15:40.677Z,1023.30
2019-02-27T10:16:40.668Z,1023.30
2019-02-27T10:17:41.098Z,1023.26
2019-02-27T10:18:40.645Z,1023.35
2019-02-27T10:19:40.635Z,1023.24
2019-02-27T10:20:40.911Z,1023.22
2019-02-27T10:21:41.336Z,1023.26
2019-02-27T10:22:40.608Z,1023.22
2019-02-27T10:23:40.591Z,1023.21
2019-02-27T10:24:40.577Z,1023.19
2019-02-27T10:25:43.217Z,1023.21
2019-02-27T10:26:40.829Z,1023.20
2019-02-27T10:27:40.544Z,1023.24
2019-02-27T10:28:40.534Z,1023.17
2019-02-27T10:29:40.522Z,1023.16
2019-02-27T10:30:40.512Z,1023.20
2019-02-27T10:31:40.501Z,1023.18
2019-02-27T10:32:40.498Z,1023.12
2019-02-27T10:33:42.962Z,1023.16
2019-02-27T10:34:40.467Z,1023.15
2019-02-27T10:35:40.463Z,1023.11
2019-02-27T10:36:40.446Z,1023.07
2019-02-27T10:37:40.489Z,1023.03
2019-02-27T10:38:40.699Z,1023.00
2019-02-27T10:39:40.412Z,1023.00
2019-02-27T10:40:40.400Z,1022.92
2019-02-27T10:41:40.390Z,1022.91
2019-02-27T10:42:40.379Z,1022.90
2019-02-27T10:43:40.368Z,1022.89
2019-02-27T10:44:40.643Z,1022.90
2019-02-27T10:45:42.146Z,1022.87
2019-02-27T10:46:40.335Z,1022.87
2019-02-27T10:47:40.324Z,1022.79
2019-02-27T10:48:40.313Z,1022.83
2019-02-27T10:49:40.305Z,1022.80
2019-02-27T10:50:40.314Z,1022.80
2019-02-27T10:51:41.541Z,1022.77
2019-02-27T10:52:40.269Z,1022.77
2019-02-27T10:53:40.257Z,1022.77
2019-02-27T10:54:40.247Z,1022.74
2019-02-27T10:55:40.235Z,1022.70
2019-02-27T10:56:40.558Z,1022.68
2019-02-27T10:57:40.213Z,1022.66
2019-02-27T10:58:40.207Z,1022.60
2019-02-27T10:59:40.193Z,1022.58
2019-02-27T11:00:40.184Z,1022.63
2019-02-27T11:01:40.171Z,1022.64
2019-02-27T11:02:40.497Z,1022.61
2019-02-27T11:03:40.148Z,1022.57
2019-02-27T11:04:40.138Z,1022.58
2019-02-27T11:05:40.126Z,1022.56
2019-02-27T11:06:40.115Z,1022.56
2019-02-27T11:07:40.104Z,1022.56
2019-02-27T11:08:40.102Z,1022.54
2019-02-27T11:09:41.260Z,1022.51
2019-02-27T11:10:40.072Z,1022.56
2019-02-27T11:11:40.060Z,1022.47
2019-02-27T11:12:40.049Z,1022.48
2019-02-27T11:13:40.038Z,1022.48
2019-02-27T11:14:40.320Z,1022.47
2019-02-27T11:15:41.552Z,1022.54
2019-02-27T11:16:40.007Z,1022.48
2019-02-27T11:17:39.999Z,1022.51
2019-02-27T11:18:39.988Z,1022.46
2019-02-27T11:19:39.973Z,1022.45
2019-02-27T11:20:39.982Z,1022.42
2019-02-27T11:21:39.952Z,1022.36
2019-02-27T11:22:39.941Z,1022.36
2019-02-27T11:23:41.140Z,1022.32
2019-02-27T11:24:39.918Z,1022.42
2019-02-27T11:25:39.905Z,1022.32
2019-02-27T11:26:40.179Z,1022.36
2019-02-27T11:27:39.886Z,1022.37
2019-02-27T11:28:39.873Z,1022.30
2019-02-27T11:29:39.863Z,1022.36
2019-02-27T11:30:39.852Z,1022.29
2019-02-27T11:31:42.299Z,1022.33
2019-02-27T11:32:40.837Z,1022.30
2019-02-27T11:33:39.819Z,1022.27
2019-02-27T11:34:39.813Z,1022.30
2019-02-27T11:35:39.801Z,1022.22
2019-02-27T11:36:39.787Z,1022.22
2019-02-27T11:37:39.774Z,1022.25
2019-02-27T11:38:40.051Z,1022.23
2019-02-27T11:39:39.753Z,1022.20
2019-02-27T11:40:42.649Z,1022.19
2019-02-27T11:41:39.731Z,1022.14
2019-02-27T11:42:39.721Z,1022.11
2019-02-27T11:43:40.801Z,1022.09
2019-02-27T11:44:39.736Z,1022.02
2019-02-27T11:45:39.688Z,1022.07
2019-02-27T11:46:39.677Z,1021.99
2019-02-27T11:47:45.071Z,1022.00
2019-02-27T11:48:40.655Z,1022.01
2019-02-27T11:49:39.644Z,1021.95
2019-02-27T11:50:39.917Z,1021.93
2019-02-27T11:51:39.622Z,1021.97
2019-02-27T11:52:48.279Z,1021.86
2019-02-27T11:53:40.600Z,1021.89
2019-02-27T11:54:42.920Z,1021.89
2019-02-27T11:55:39.579Z,1021.81
2019-02-27T11:56:39.863Z,1021.81
2019-02-27T11:57:39.558Z,1021.82
2019-02-27T11:58:39.548Z,1021.84
2019-02-27T11:59:39.534Z,1021.73
2019-02-27T12:00:39.525Z,1021.74
2019-02-27T12:01:39.512Z,1021.69
2019-02-27T12:02:39.523Z,1021.66
2019-02-27T12:03:39.490Z,1021.64
2019-02-27T12:04:39.480Z,1021.72
2019-02-27T12:05:39.469Z,1021.66